Time;durP1;ratioP1;P1;durP2;ratioP2;P2;SDS_P1;SDS_P2;PMS_P1;PMS_P2;Temp;Humidity;BMP_temperature;BMP_pressure;BME280_temperature;BME280_humidity;BME280_pressure;Samples;Min_cycle;Max_cycle;Signal;HPM_P1;HPM_P2
2023/01/18 00:01:40;;;;;;;;;;;;;;;;;;5072271;28;20177;-61
2023/01/18 00:04:05;;;;;;;;;;;;;;;;;;5074559;28;19955;-60
2023/01/18 00:06:31;;;;;;;;;;;;;;;;;;5074171;28;19946;-60
2023/01/18 00:08:57;;;;;;;;;;;;;;;;;;5072406;28;19931;-60
2023/01/18 00:11:23;;;;;;;;;;;;;;;;;;5073999;28;19973;-62
2023/01/18 00:13:49;;;;;;;;;;;;;;;;;;5074697;28;19931;-59
2023/01/18 00:16:15;;;;;;;;;;;;;;;;;;5077863;28;19928;-61
2023/01/18 00:18:41;;;;;;;;;;;;;;;;;;5082296;28;19925;-60
2023/01/18 00:21:07;;;;;;;;;;;;;;;;;;5072175;28;19928;-60
2023/01/18 00:23:33;;;;;;;;;;;;;;;;;;5072494;28;19929;-60
2023/01/18 00:25:59;;;;;;;;;;;;;;;;;;5074018;28;19979;-61
2023/01/18 00:28:25;;;;;;;;;;;;;;;;;;5077588;28;19928;-59
2023/01/18 00:30:51;;;;;;;;;;;;;;;;;;5070163;28;20263;-62
2023/01/18 00:33:16;;;;;;;;;;;;;;;;;;5075182;28;19934;-61
2023/01/18 00:35:42;;;;;;;;;;;;;;;;;;5081606;28;19924;-61
2023/01/18 00:38:08;;;;;;;;;;;;;;;;;;5084335;28;20300;-60
2023/01/18 00:40:34;;;;;;;;;;;;;;;;;;5079804;28;19928;-60
2023/01/18 00:45:45;;;;;;;;;;;;;;;;;;5078969;28;20019;-61
2023/01/18 00:48:11;;;;;;;;;;;;;;;;;;5076340;28;20047;-60
2023/01/18 00:50:37;;;;;;;;;;;;;;;;;;5076306;28;19967;-60
2023/01/18 00:53:03;;;;;;;;;;;;;;;;;;5074189;28;20597;-63
2023/01/18 00:55:29;;;;;;;;;;;;;;;;;;5081015;28;20044;-62
2023/01/18 00:57:54;;;;;;;;;;;;;;;;;;5075320;28;20015;-61
2023/01/18 01:00:22;;;;;;;;;;;;;;;;;;5081191;28;20283;-59
2023/01/18 01:02:50;;;;;;;;;;;;;;;;;;5075406;28;19925;-59
2023/01/18 01:08:01;;;;;;;;;;;;;;;;;;5076488;28;20015;-60
2023/01/18 01:10:27;;;;;;;;;;;;;;;;;;5077410;28;20007;-61
2023/01/18 01:26:35;;;;;;;;;;;;;;;;;;5077828;28;20617;-59
2023/01/18 01:29:01;;;;;;;;;;;;;;;;;;5076021;28;19924;-59
2023/01/18 01:31:27;;;;;;;;;;;;;;;;;;5076857;28;19928;-61
2023/01/18 01:33:53;;;;;;;;;;;;;;;;;;5074407;28;19932;-59
2023/01/18 01:36:19;;;;;;;;;;;;;;;;;;5077229;28;19951;-59
2023/01/18 01:38:45;;;;;;;;;;;;;;;;;;5078356;28;19931;-59
2023/01/18 01:41:10;;;;;;;;;;;;;;;;;;5075170;28;20253;-61
2023/01/18 01:43:36;;;;;;;;;;;;;;;;;;5073900;28;20402;-59
2023/01/18 01:46:02;;;;;;;;;;;;;;;;;;5076209;28;20442;-60
2023/01/18 01:48:28;;;;;;;;;;;;;;;;;;5079061;28;19951;-61
2023/01/18 01:50:54;;;;;;;;;;;;;;;;;;5078695;28;20395;-61
2023/01/18 01:53:20;;;;;;;;;;;;;;;;;;5078977;28;19935;-59
2023/01/18 01:55:46;;;;;;;;;;;;;;;;;;5083660;28;19985;-59
2023/01/18 01:58:12;;;;;;;;;;;;;;;;;;5083411;28;20388;-59
2023/01/18 02:00:38;;;;;;;;;;;;;;;;;;5082573;28;19933;-60
2023/01/18 02:03:04;;;;;;;;;;;;;;;;;;5077806;28;19968;-60
2023/01/18 02:05:29;;;;;;;;;;;;;;;;;;5081534;28;20018;-60
2023/01/18 02:07:55;;;;;;;;;;;;;;;;;;5078536;28;19931;-59
2023/01/18 02:10:21;;;;;;;;;;;;;;;;;;5076030;28;19924;-61
2023/01/18 02:12:47;;;;;;;;;;;;;;;;;;5074793;28;19929;-59
2023/01/18 02:15:13;;;;;;;;;;;;;;;;;;5075163;28;19928;-59
2023/01/18 02:17:58;;;;;;;1.30;0.98;;;;;;;;;;5074400;28;19928;-59
2023/01/18 02:20:42;;;;;;;0.70;0.70;;;;;;;;;;5079807;28;20079;-62
2023/01/18 02:23:27;;;;;;;0.75;0.75;;;;;;;;;;5074024;28;20060;-59
2023/01/18 02:26:06;;;;;;;1.10;0.88;;;;;;;;;;5073701;28;20574;-60
2023/01/18 02:28:32;;;;;;;;;;;;;;;;;;5076784;28;20044;-59
2023/01/18 02:30:58;;;;;;;;;;;;;;;;;;5074270;28;19925;-61
2023/01/18 02:33:24;;;;;;;1.10;0.88;;;;;;;;;;5080109;28;19924;-61
2023/01/18 02:35:51;;;;;;;1.10;1.00;;;;;;;;;;5072453;28;20087;-60
2023/01/18 02:38:25;;;;;;;1.33;1.02;;;;;;;;;;5075251;28;20040;-65
2023/01/18 02:41:06;;;;;;;1.00;0.88;;;;;;;;;;5071300;28;20040;-60
2023/01/18 02:46:32;;;;;;;0.57;0.57;;;;;;;;;;5078482;28;20680;-61
2023/01/18 02:49:01;;;;;;;0.68;0.50;;;;;;;;;;5073465;28;20762;-60
2023/01/18 02:51:27;;;;;;;0.55;0.52;;;;;;;;;;5074059;28;20074;-60
2023/01/18 02:53:53;;;;;;;0.60;0.50;;;;;;;;;;5073127;28;20866;-61
2023/01/18 02:56:32;;;;;;;1.00;0.68;;;;;;;;;;5067078;28;20045;-59
2023/01/18 02:59:04;;;;;;;0.60;0.60;;;;;;;;;;5078011;28;20109;-59
2023/01/18 03:01:36;;;;;;;0.40;0.40;;;;;;;;;;5076885;28;20074;-61
2023/01/18 03:04:11;;;;;;;0.47;0.30;;;;;;;;;;5073077;28;20066;-60
2023/01/18 03:06:40;;;;;;;0.65;0.57;;;;;;;;;;5076474;28;20062;-60
2023/01/18 03:09:06;;;;;;;0.40;0.40;;;;;;;;;;5073272;28;20056;-59
2023/01/18 03:11:32;;;;;;;;;;;;;;;;;;5074201;28;20074;-59
2023/01/18 03:13:58;;;;;;;;;;;;;;;;;;5073671;28;20451;-60
2023/01/18 03:16:24;;;;;;;;;;;;;;;;;;5077201;28;19924;-62
2023/01/18 03:18:59;;;;;;;;;;;;;;;;;;5072229;28;19920;-61
2023/01/18 03:21:25;;;;;;;;;;;;;;;;;;5074891;28;19924;-61
2023/01/18 03:23:51;;;;;;;;;;;;;;;;;;5074653;28;20007;-60
2023/01/18 03:26:17;;;;;;;;;;;;;;;;;;5076607;28;19945;-59
2023/01/18 03:34:13;;;;;;;;;;;;;;;;;;5073804;28;19923;-59
2023/01/18 03:36:38;;;;;;;;;;;;;;;;;;5073879;28;19930;-61
2023/01/18 03:39:04;;;;;;;;;;;;;;;;;;5072286;28;19951;-59
2023/01/18 03:41:30;;;;;;;;;;;;;;;;;;5075745;28;20513;-61
2023/01/18 03:43:56;;;;;;;;;;;;;;;;;;5072902;28;20356;-60
2023/01/18 03:46:22;;;;;;;;;;;;;;;;;;5074094;28;19973;-59
2023/01/18 03:48:48;;;;;;;;;;;;;;;;;;5072599;28;19924;-60
2023/01/18 03:51:14;;;;;;;;;;;;;;;;;;5074185;28;20340;-60
2023/01/18 03:53:40;;;;;;;;;;;;;;;;;;5071315;28;19924;-61
2023/01/18 03:56:06;;;;;;;;;;;;;;;;;;5073021;28;19921;-59
2023/01/18 03:58:32;;;;;;;;;;;;;;;;;;5074806;28;20268;-60
2023/01/18 04:00:58;;;;;;;0.90;0.75;;;;;;;;;;5071793;28;20265;-61
2023/01/18 04:03:24;;;;;;;1.50;0.40;;;;;;;;;;5074011;28;20569;-59
2023/01/18 04:05:50;;;;;;;0.80;0.77;;;;;;;;;;5071686;28;20048;-59
2023/01/18 04:08:20;;;;;;;0.82;0.82;;;;;;;;;;5072186;28;20040;-59
2023/01/18 04:10:46;;;;;;;;;;;;;;;;;;5072040;28;20152;-59
2023/01/18 04:13:12;;;;;;;;;;;;;;;;;;5073041;28;20411;-59
2023/01/18 04:15:38;;;;;;;;;;;;;;;;;;5073030;28;20701;-60
2023/01/18 04:18:04;;;;;;;;;;;;;;;;;;5073321;28;19977;-59
2023/01/18 04:20:30;;;;;;;;;;;;;;;;;;5074355;28;19970;-59
2023/01/18 04:22:56;;;;;;;;;;;;;;;;;;5071188;28;19924;-60
2023/01/18 04:25:22;;;;;;;;;;;;;;;;;;5074747;28;20431;-61
2023/01/18 04:27:47;;;;;;;;;;;;;;;;;;5071441;28;19924;-60
2023/01/18 04:30:13;;;;;;;;;;;;;;;;;;5073221;28;19924;-61
2023/01/18 04:32:41;;;;;;;;;;;;;;;;;;5073238;28;19920;-59
2023/01/18 04:35:07;;;;;;;;;;;;;;;;;;5071819;28;19981;-59
2023/01/18 04:37:33;;;;;;;;;;;;;;;;;;5074578;28;19931;-59
2023/01/18 04:39:59;;;;;;;;;;;;;;;;;;5072627;28;19924;-59
2023/01/18 04:42:25;;;;;;;;;;;;;;;;;;5075418;28;19971;-61
2023/01/18 04:44:51;;;;;;;;;;;;;;;;;;5071944;28;20003;-59
2023/01/18 04:47:17;;;;;;;;;;;;;;;;;;5073272;28;19924;-58
2023/01/18 04:49:43;;;;;;;;;;;;;;;;;;5072216;28;19973;-59
2023/01/18 04:52:09;;;;;;;;;;;;;;;;;;5069390;28;19924;-60
2023/01/18 04:54:35;;;;;;;;;;;;;;;;;;5078522;28;19920;-58
2023/01/18 04:57:01;;;;;;;;;;;;;;;;;;5072130;28;19939;-58
2023/01/18 04:59:27;;;;;;;;;;;;;;;;;;5073859;28;19920;-59
2023/01/18 05:01:53;;;;;;;;;;;;;;;;;;5074225;28;20015;-60
2023/01/18 05:04:19;;;;;;;;;;;;;;;;;;5074933;28;20023;-58
2023/01/18 05:06:45;;;;;;;;;;;;;;;;;;5072154;28;20803;-58
2023/01/18 05:09:11;;;;;;;;;;;;;;;;;;5075881;28;20033;-58
2023/01/18 05:11:37;;;;;;;;;;;;;;;;;;5072845;28;19928;-58
2023/01/18 05:14:03;;;;;;;;;;;;;;;;;;5078637;28;19920;-58
2023/01/18 05:16:29;;;;;;;;;;;;;;;;;;5074983;28;19925;-58
2023/01/18 05:18:55;;;;;;;;;;;;;;;;;;5074237;28;20022;-57
2023/01/18 05:21:21;;;;;;;;;;;;;;;;;;5076285;28;19924;-58
2023/01/18 05:23:46;;;;;;;;;;;;;;;;;;5082137;28;19920;-57
2023/01/18 05:26:13;;;;;;;;;;;;;;;;;;5079140;28;19928;-58
2023/01/18 05:28:39;;;;;;;;;;;;;;;;;;5082455;28;19924;-57
2023/01/18 05:31:05;;;;;;;;;;;;;;;;;;5079835;28;19920;-58
2023/01/18 05:33:31;;;;;;;;;;;;;;;;;;5078182;28;19920;-59
2023/01/18 05:35:57;;;;;;;;;;;;;;;;;;5080463;28;20375;-59
2023/01/18 05:38:23;;;;;;;;;;;;;;;;;;5080828;28;19920;-58
2023/01/18 05:40:51;;;;;;;;;;;;;;;;;;5077005;28;19979;-60
2023/01/18 05:43:16;;;;;;;;;;;;;;;;;;5079720;28;20391;-59
2023/01/18 05:45:42;;;;;;;;;;;;;;;;;;5083639;28;19920;-60
2023/01/18 05:48:08;;;;;;;;;;;;;;;;;;5079910;28;19924;-59
2023/01/18 05:50:34;;;;;;;;;;;;;;;;;;5081209;28;19928;-60
2023/01/18 05:53:00;;;;;;;;;;;;;;;;;;5078024;28;20271;-58
2023/01/18 05:55:26;;;;;;;;;;;;;;;;;;5080393;28;19919;-60
2023/01/18 05:57:52;;;;;;;;;;;;;;;;;;5084976;28;19927;-59
2023/01/18 06:00:18;;;;;;;;;;;;;;;;;;5078640;28;20394;-60
2023/01/18 06:02:44;;;;;;;;;;;;;;;;;;5080486;28;20064;-60
2023/01/18 06:05:11;;;;;;;;;;;;;;;;;;5082277;28;19973;-60
2023/01/18 06:07:37;;;;;;;;;;;;;;;;;;5078843;28;19924;-59
2023/01/18 06:10:03;;;;;;;;;;;;;;;;;;5075461;28;19927;-59
2023/01/18 06:12:30;;;;;;;;;;;;;;;;;;5078385;28;19920;-58
2023/01/18 06:14:56;;;;;;;;;;;;;;;;;;5073853;28;20425;-59
2023/01/18 06:17:22;;;;;;;;;;;;;;;;;;5083808;28;19949;-60
2023/01/18 06:19:48;;;;;;;;;;;;;;;;;;5078771;28;19924;-60
2023/01/18 06:22:14;;;;;;;;;;;;;;;;;;5079719;28;19920;-58
2023/01/18 06:24:40;;;;;;;;;;;;;;;;;;5082649;28;19950;-58
2023/01/18 06:27:06;;;;;;;;;;;;;;;;;;5080956;28;19920;-59
2023/01/18 06:29:32;;;;;;;;;;;;;;;;;;5079528;28;19924;-58
2023/01/18 06:31:58;;;;;;;;;;;;;;;;;;5079069;28;20470;-59
2023/01/18 06:34:24;;;;;;;;;;;;;;;;;;5083039;28;19931;-60
2023/01/18 06:36:50;;;;;;;;;;;;;;;;;;5080007;28;19919;-58
2023/01/18 06:39:16;;;;;;;;;;;;;;;;;;5075868;28;19935;-58
2023/01/18 06:41:42;;;;;;;;;;;;;;;;;;5077345;28;19955;-59
2023/01/18 06:44:08;;;;;;;;;;;;;;;;;;5079460;28;19978;-58
2023/01/18 06:46:34;;;;;;;;;;;;;;;;;;5079166;28;20018;-59
2023/01/18 06:49:00;;;;;;;;;;;;;;;;;;5076973;28;19920;-58
2023/01/18 06:51:26;;;;;;;;;;;;;;;;;;5077588;28;19920;-58
2023/01/18 06:53:52;;;;;;;;;;;;;;;;;;5079092;28;20273;-59
2023/01/18 06:56:17;;;;;;;;;;;;;;;;;;5077833;28;19931;-60
2023/01/18 06:58:43;;;;;;;;;;;;;;;;;;5071402;28;19931;-58
2023/01/18 07:01:09;;;;;;;;;;;;;;;;;;5075965;28;19935;-58
2023/01/18 07:03:35;;;;;;;;;;;;;;;;;;5070065;28;19927;-58
2023/01/18 07:06:01;;;;;;;;;;;;;;;;;;5074626;28;19920;-59
2023/01/18 07:08:27;;;;;;;;;;;;;;;;;;5071166;28;19920;-58
2023/01/18 07:10:53;;;;;;;;;;;;;;;;;;5076632;28;19924;-58
2023/01/18 07:13:19;;;;;;;;;;;;;;;;;;5077360;28;20014;-58
2023/01/18 07:15:45;;;;;;;;;;;;;;;;;;5076710;28;20065;-60
2023/01/18 07:18:11;;;;;;;;;;;;;;;;;;5078687;28;20370;-58
2023/01/18 07:20:36;;;;;;;;;;;;;;;;;;5073294;28;19920;-58
2023/01/18 07:23:03;;;;;;;;;;;;;;;;;;5075822;28;19920;-58
2023/01/18 07:25:29;;;;;;;;;;;;;;;;;;5081054;28;19974;-58
2023/01/18 07:27:55;;;;;;;;;;;;;;;;;;5074670;28;19928;-58
2023/01/18 07:30:21;;;;;;;;;;;;;;;;;;5077619;28;19921;-60
2023/01/18 07:32:48;;;;;;;;;;;;;;;;;;5075136;28;20358;-58
2023/01/18 07:35:14;;;;;;;;;;;;;;;;;;5077062;28;19925;-58
2023/01/18 07:37:40;;;;;;;;;;;;;;;;;;5079245;28;19927;-58
2023/01/18 07:40:07;;;;;;;;;;;;;;;;;;5075540;28;19975;-58
2023/01/18 07:42:33;;;;;;;;;;;;;;;;;;5079451;28;19927;-58
2023/01/18 07:44:59;;;;;;;;;;;;;;;;;;5075715;28;19924;-59
2023/01/18 07:47:25;;;;;;;;;;;;;;;;;;5076274;28;20339;-62
2023/01/18 07:49:51;;;;;;;;;;;;;;;;;;5082006;28;19921;-58
2023/01/18 07:52:16;;;;;;;;;;;;;;;;;;5079950;28;19920;-58
2023/01/18 07:54:42;;;;;;;;;;;;;;;;;;5079313;28;20275;-61
2023/01/18 07:57:08;;;;;;;;;;;;;;;;;;5081363;28;19924;-58
2023/01/18 07:59:34;;;;;;;;;;;;;;;;;;5078489;28;19939;-60
2023/01/18 08:02:01;;;;;;;;;;;;;;;;;;5077024;28;19928;-59
2023/01/18 08:04:27;;;;;;;;;;;;;;;;;;5074544;28;19921;-58
2023/01/18 08:06:53;;;;;;;;;;;;;;;;;;5070018;28;20296;-60
2023/01/18 08:09:19;;;;;;;;;;;;;;;;;;5077264;28;19924;-61
2023/01/18 08:11:45;;;;;;;8.48;6.82;;;;;;;;;;5072593;28;20276;-58
2023/01/18 08:14:11;;;;;;;9.85;6.07;;;;;;;;;;5072934;28;20495;-60
2023/01/18 08:16:37;;;;;;;7.95;5.88;;;;;;;;;;5079566;28;20137;-58
2023/01/18 08:19:03;;;;;;;7.80;5.78;;;;;;;;;;5079702;28;20597;-58
2023/01/18 08:21:30;;;;;;;6.88;5.90;;;;;;;;;;5080421;28;20036;-59
2023/01/18 08:23:56;;;;;;;7.53;5.55;;;;;;;;;;5076962;28;20052;-60
2023/01/18 08:26:22;;;;;;;;;;;;;;;;;;5073632;28;20044;-60
2023/01/18 08:28:48;;;;;;;;;;;;;;;;;;5078679;28;20341;-60
2023/01/18 08:31:14;;;;;;;;;;;;;;;;;;5074618;28;19997;-58
2023/01/18 08:33:40;;;;;;;;;;;;;;;;;;5077146;28;19993;-60
2023/01/18 08:36:06;;;;;;;;;;;;;;;;;;5070433;28;19955;-59
2023/01/18 08:38:32;;;;;;;;;;;;;;;;;;5082593;28;20345;-58
2023/01/18 08:40:58;;;;;;;;;;;;;;;;;;5073186;28;19951;-58
2023/01/18 08:43:24;;;;;;;;;;;;;;;;;;5078306;28;20057;-60
2023/01/18 08:45:49;;;;;;;;;;;;;;;;;;5076169;28;19949;-59
2023/01/18 08:48:15;;;;;;;;;;;;;;;;;;5073851;28;21612;-58
2023/01/18 08:50:44;;;;;;;;;;;;;;;;;;5070979;28;19963;-59
2023/01/18 08:53:10;;;;;;;;;;;;;;;;;;5070708;28;19924;-58
2023/01/18 08:55:36;;;;;;;;;;;;;;;;;;5081832;28;19921;-58
2023/01/18 08:58:02;;;;;;;;;;;;;;;;;;5085903;28;19920;-59
2023/01/18 09:00:31;;;;;;;;;;;;;;;;;;5084613;28;19947;-54
2023/01/18 09:02:57;;;;;;;;;;;;;;;;;;5078797;28;19934;-59
2023/01/18 09:05:23;;;;;;;;;;;;;;;;;;5068094;28;19924;-59
2023/01/18 09:07:49;;;;;;;;;;;;;;;;;;5068946;28;20379;-68
2023/01/18 09:10:15;;;;;;;;;;;;;;;;;;5066041;28;19928;-59
2023/01/18 09:12:41;;;;;;;;;;;;;;;;;;5069123;28;19973;-58
2023/01/18 09:15:07;;;;;;;;;;;;;;;;;;5069182;28;19920;-57
2023/01/18 09:17:33;;;;;;;;;;;;;;;;;;5069092;28;20054;-60
2023/01/18 09:19:59;;;;;;;;;;;;;;;;;;5069011;28;20383;-60
2023/01/18 09:22:25;;;;;;;;;;;;;;;;;;5076223;28;20330;-57
2023/01/18 09:24:51;;;;;;;;;;;;;;;;;;5084004;28;19989;-59
2023/01/18 09:27:16;;;;;;;;;;;;;;;;;;5069483;28;20011;-58
2023/01/18 09:29:45;;;;;;;;;;;;;;;;;;5081940;28;20026;-58
2023/01/18 09:32:11;;;;;;;;;;;;;;;;;;5077432;28;20209;-58
2023/01/18 09:34:37;;;;;;;;;;;;;;;;;;5084269;28;19975;-57
2023/01/18 09:37:03;;;;;;;;;;;;;;;;;;5070376;28;19920;-59
2023/01/18 09:39:29;;;;;;;;;;;;;;;;;;5073266;28;20433;-57
2023/01/18 09:41:55;;;;;;;;;;;;;;;;;;5077214;28;19927;-58
2023/01/18 09:44:21;;;;;;;;;;;;;;;;;;5084129;28;19920;-57
2023/01/18 09:46:47;;;;;;;;;;;;;;;;;;5084779;28;19932;-58
2023/01/18 09:49:13;;;;;;;;;;;;;;;;;;5078052;28;19971;-58
2023/01/18 09:51:39;;;;;;;;;;;;;;;;;;5080081;28;19924;-57
2023/01/18 09:54:04;;;;;;;;;;;;;;;;;;5071667;28;19959;-58
2023/01/18 09:56:30;;;;;;;;;;;;;;;;;;5058785;28;20447;-60
2023/01/18 09:58:57;;;;;;;;;;;;;;;;;;5072982;28;19920;-58
2023/01/18 10:01:23;;;;;;;;;;;;;;;;;;5085353;28;19927;-57
2023/01/18 10:03:49;;;;;;;;;;;;;;;;;;5078917;28;19919;-57
2023/01/18 10:06:15;;;;;;;;;;;;;;;;;;5077526;28;19928;-57
2023/01/18 10:08:40;;;;;;;;;;;;;;;;;;5075344;28;19930;-58
2023/01/18 10:11:06;;;;;;;;;;;;;;;;;;5074456;28;19919;-57
2023/01/18 10:13:32;;;;;;;;;;;;;;;;;;5079728;28;19920;-57
2023/01/18 10:15:58;;;;;;;7.13;6.18;;;;;;;;;;5086973;28;19923;-59
2023/01/18 10:18:25;;;;;;;10.32;6.82;;;;;;;;;;5081907;28;20040;-57
2023/01/18 10:20:50;;;;;;;;;;;;;;;;;;5076157;28;20082;-57
2023/01/18 10:23:29;;;;;;;9.63;6.05;;;;;;;;;;5083068;28;19959;-57
2023/01/18 10:26:00;;;;;;;7.30;5.82;;;;;;;;;;5082469;28;20045;-58
2023/01/18 10:28:26;;;;;;;8.43;6.40;;;;;;;;;;5074790;28;20078;-57
2023/01/18 10:31:21;;;;;;;8.00;4.88;;;;;;;;;;5067138;28;20120;-57
2023/01/18 10:33:47;;;;;;;;;;;;;;;;;;5025120;28;20054;-57
2023/01/18 10:36:13;;;;;;;;;;;;;;;;;;5072398;28;20010;-59
2023/01/18 10:38:39;;;;;;;;;;;;;;;;;;5071055;28;20448;-58
2023/01/18 10:41:05;;;;;;;;;;;;;;;;;;5077954;28;19924;-58
2023/01/18 10:43:31;;;;;;;8.27;5.50;;;;;;;;;;5077565;28;20087;-58
2023/01/18 10:45:57;;;;;;;8.10;5.55;;;;;;;;;;5075044;28;20440;-58
2023/01/18 10:48:23;;;;;;;;;;;;;;;;;;5076172;28;20526;-58
2023/01/18 10:50:49;;;;;;;;;;;;;;;;;;5073481;28;20011;-60
2023/01/18 10:53:15;;;;;;;;;;;;;;;;;;5078661;28;20012;-60
2023/01/18 10:55:41;;;;;;;;;;;;;;;;;;5079400;28;20410;-59
2023/01/18 10:58:07;;;;;;;;;;;;;;;;;;5082307;28;19920;-58
2023/01/18 11:00:33;;;;;;;;;;;;;;;;;;5084624;28;19931;-58
2023/01/18 11:02:59;;;;;;;;;;;;;;;;;;5078478;28;20261;-58
2023/01/18 11:05:25;;;;;;;;;;;;;;;;;;5079922;28;19958;-58
2023/01/18 11:07:51;;;;;;;;;;;;;;;;;;5073096;28;20026;-60
2023/01/18 11:10:17;;;;;;;;;;;;;;;;;;5074135;28;19920;-60
2023/01/18 11:12:44;;;;;;;;;;;;;;;;;;5073378;28;19920;-58
2023/01/18 11:15:10;;;;;;;;;;;;;;;;;;5083360;28;19962;-58
2023/01/18 11:17:36;;;;;;;;;;;;;;;;;;5081925;28;19959;-58
2023/01/18 11:20:04;;;;;;;;;;;;;;;;;;5073851;28;19924;-58
2023/01/18 11:22:32;;;;;;;;;;;;;;;;;;5066607;28;19921;-58
2023/01/18 11:24:58;;;;;;;;;;;;;;;;;;5065780;28;19931;-58
2023/01/18 11:27:24;;;;;;;;;;;;;;;;;;5071451;28;19924;-60
2023/01/18 11:29:50;;;;;;;;;;;;;;;;;;5070568;28;19920;-57
2023/01/18 11:32:16;;;;;;;;;;;;;;;;;;5064324;28;20337;-58
2023/01/18 11:34:45;;;;;;;;;;;;;;;;;;5064899;28;19920;-59
2023/01/18 11:37:11;;;;;;;;;;;;;;;;;;5066355;28;20406;-58
2023/01/18 11:39:37;;;;;;;;;;;;;;;;;;5073928;28;19928;-58
2023/01/18 11:42:02;;;;;;;;;;;;;;;;;;5065420;28;19927;-58
2023/01/18 11:44:31;;;;;;;7.90;5.40;;;;;;;;;;5063857;28;19924;-58
2023/01/18 11:47:02;;;;;;;7.60;5.10;;;;;;;;;;5065971;28;20047;-58
2023/01/18 11:49:41;;;;;;;6.18;4.03;;;;;;;;;;5067590;28;20535;-58
2023/01/18 11:52:10;;;;;;;6.45;4.90;;;;;;;;;;5076067;28;20083;-58
2023/01/18 11:54:38;;;;;;;7.85;4.68;;;;;;;;;;5085585;28;20048;-59
2023/01/18 11:57:09;;;;;;;5.50;4.47;;;;;;;;;;5085029;28;20051;-59
2023/01/18 11:59:37;;;;;;;5.68;3.92;;;;;;;;;;5085399;28;20051;-58
2023/01/18 12:02:21;;;;;;;7.72;5.00;;;;;;;;;;5085815;28;20075;-61
2023/01/18 12:04:50;;;;;;;7.73;5.80;;;;;;;;;;5085921;28;20175;-62
2023/01/18 12:07:35;;;;;;;7.10;4.40;;;;;;;;;;5085451;28;20120;-59
2023/01/18 12:10:01;;;;;;;4.47;4.07;;;;;;;;;;5086010;28;20123;-61
2023/01/18 12:12:34;;;;;;;9.80;4.70;;;;;;;;;;5084755;28;20285;-59
2023/01/18 12:15:00;;;;;;;;;;;;;;;;;;5086141;28;19926;-59
2023/01/18 12:17:25;;;;;;;;;;;;;;;;;;5086136;28;20575;-60
2023/01/18 12:19:52;;;;;;;;;;;;;;;;;;5085128;28;19988;-61
2023/01/18 12:22:18;;;;;;;8.13;5.03;;;;;;;;;;5085409;28;19920;-60
2023/01/18 12:24:44;;;;;;;;;;;;;;;;;;5084842;28;20044;-59
2023/01/18 12:27:20;;;;;;;6.78;4.40;;;;;;;;;;5084561;28;19924;-59
2023/01/18 12:29:47;;;;;;;6.57;4.47;;;;;;;;;;5087948;28;20523;-59
2023/01/18 12:32:13;;;;;;;;;;;;;;;;;;5090070;28;20059;-64
2023/01/18 12:34:39;;;;;;;;;;;;;;;;;;5089653;28;19963;-59
2023/01/18 12:37:04;;;;;;;;;;;;;;;;;;5090680;28;20419;-61
2023/01/18 12:39:31;;;;;;;;;;;;;;;;;;5090087;28;20065;-59
2023/01/18 12:41:57;;;;;;;;;;;;;;;;;;5089103;28;19924;-59
2023/01/18 12:44:24;;;;;;;;;;;;;;;;;;5089793;28;19920;-62
2023/01/18 12:46:50;;;;;;;;;;;;;;;;;;5083003;28;19920;-60
2023/01/18 12:49:17;;;;;;;;;;;;;;;;;;5083702;28;19943;-58
2023/01/18 12:51:43;;;;;;;;;;;;;;;;;;5081781;28;19924;-61
2023/01/18 12:54:09;;;;;;;;;;;;;;;;;;5079235;28;20011;-60
2023/01/18 12:56:35;;;;;;;;;;;;;;;;;;5087274;28;20073;-61
2023/01/18 12:59:01;;;;;;;;;;;;;;;;;;5084125;28;19920;-60
2023/01/18 13:01:27;;;;;;;;;;;;;;;;;;5079961;28;19931;-61
2023/01/18 13:03:53;;;;;;;;;;;;;;;;;;5085446;28;19931;-63
2023/01/18 13:06:19;;;;;;;;;;;;;;;;;;5068202;28;19930;-61
2023/01/18 13:08:45;;;;;;;;;;;;;;;;;;5076762;28;19963;-60
2023/01/18 13:11:11;;;;;;;;;;;;;;;;;;5086586;28;20032;-61
2023/01/18 13:13:37;;;;;;;;;;;;;;;;;;5084171;28;19920;-60
2023/01/18 13:16:02;;;;;;;;;;;;;;;;;;5088714;28;19920;-60
2023/01/18 13:18:28;;;;;;;;;;;;;;;;;;5070929;28;19954;-60
2023/01/18 13:20:54;;;;;;;;;;;;;;;;;;5075642;28;19970;-61
2023/01/18 13:23:20;;;;;;;;;;;;;;;;;;5087009;28;20362;-61
2023/01/18 13:25:47;;;;;;;;;;;;;;;;;;5088003;28;20010;-61
2023/01/18 13:28:13;;;;;;;;;;;;;;;;;;5078962;28;19931;-60
2023/01/18 13:30:39;;;;;;;;;;;;;;;;;;5076415;28;20378;-59
2023/01/18 13:33:05;;;;;;;;;;;;;;;;;;5069276;28;19921;-60
2023/01/18 13:35:32;;;;;;;;;;;;;;;;;;5078443;28;19921;-60
2023/01/18 13:37:58;;;;;;;;;;;;;;;;;;5077713;28;19927;-60
2023/01/18 13:40:24;;;;;;;;;;;;;;;;;;5076699;28;19982;-61
2023/01/18 13:42:49;;;;;;;;;;;;;;;;;;5086460;28;19980;-61
2023/01/18 13:45:16;;;;;;;;;;;;;;;;;;5087215;28;19946;-61
2023/01/18 13:47:44;;;;;;;;;;;;;;;;;;5088491;28;19920;-63
2023/01/18 13:50:10;;;;;;;;;;;;;;;;;;5083531;28;20341;-60
2023/01/18 13:52:37;;;;;;;;;;;;;;;;;;5085129;28;19927;-59
2023/01/18 13:55:04;;;;;;;;;;;;;;;;;;5079998;28;20261;-61
2023/01/18 13:57:30;;;;;;;;;;;;;;;;;;5066615;28;19931;-62
2023/01/18 13:59:55;;;;;;;;;;;;;;;;;;5075102;28;19924;-60
2023/01/18 14:02:22;;;;;;;;;;;;;;;;;;5071511;28;19927;-59
2023/01/18 14:04:48;;;;;;;;;;;;;;;;;;5072836;28;20015;-60
2023/01/18 14:07:14;;;;;;;;;;;;;;;;;;5077392;28;20015;-61
2023/01/18 14:09:40;;;;;;;;;;;;;;;;;;5084398;28;19924;-60
2023/01/18 14:12:06;;;;;;;;;;;;;;;;;;5086379;28;19924;-62
2023/01/18 14:14:32;;;;;;;;;;;;;;;;;;5088200;28;20002;-60
2023/01/18 14:16:58;;;;;;;;;;;;;;;;;;5086918;28;20011;-59
2023/01/18 14:19:26;;;;;;;;;;;;;;;;;;5086162;28;19936;-60
2023/01/18 14:21:52;;;;;;;;;;;;;;;;;;5087044;28;19966;-61
2023/01/18 14:24:18;;;;;;;;;;;;;;;;;;5085386;28;19963;-60
2023/01/18 14:26:43;;;;;;;;;;;;;;;;;;5086586;28;20064;-60
2023/01/18 14:29:09;;;;;;;;;;;;;;;;;;5085710;28;19966;-60
2023/01/18 14:31:35;;;;;;;;;;;;;;;;;;5088038;28;20043;-61
2023/01/18 14:34:01;;;;;;;;;;;;;;;;;;5086149;28;20042;-61
2023/01/18 14:36:27;;;;;;;;;;;;;;;;;;5086171;28;20439;-61
2023/01/18 14:38:53;;;;;;;;;;;;;;;;;;5080614;28;19977;-60
2023/01/18 14:41:19;;;;;;;;;;;;;;;;;;5078068;28;19924;-56
2023/01/18 14:43:45;;;;;;;;;;;;;;;;;;5067814;28;20292;-55
2023/01/18 14:46:13;;;;;;;;;;;;;;;;;;5067126;28;20435;-56
2023/01/18 14:48:39;;;;;;;;;;;;;;;;;;5066315;28;20374;-56
2023/01/18 14:51:05;;;;;;;;;;;;;;;;;;5067856;28;19920;-54
2023/01/18 14:53:32;;;;;;;;;;;;;;;;;;5066268;28;19920;-61
2023/01/18 14:55:58;;;;;;;;;;;;;;;;;;5074006;28;19969;-56
2023/01/18 14:58:24;;;;;;;;;;;;;;;;;;5074212;28;19924;-55
2023/01/18 15:00:50;;;;;;;;;;;;;;;;;;5079557;28;19920;-55
2023/01/18 15:03:16;;;;;;;;;;;;;;;;;;5087010;28;19924;-55
2023/01/18 15:05:42;;;;;;;;;;;;;;;;;;5081015;28;20347;-56
2023/01/18 15:08:08;;;;;;;;;;;;;;;;;;5085297;28;19954;-56
2023/01/18 15:10:35;;;;;;;;;;;;;;;;;;5078624;28;19930;-55
2023/01/18 15:13:01;;;;;;;;;;;;;;;;;;5065873;28;19965;-55
2023/01/18 15:15:27;;;;;;;;;;;;;;;;;;5084807;28;19923;-55
2023/01/18 15:17:53;;;;;;;;;;;;;;;;;;5071771;28;19967;-55
2023/01/18 15:20:19;;;;;;;;;;;;;;;;;;5083077;28;20006;-55
2023/01/18 15:22:45;;;;;;;;;;;;;;;;;;5073843;28;20290;-57
2023/01/18 15:25:11;;;;;;;;;;;;;;;;;;5083622;28;19987;-55
2023/01/18 15:27:37;;;;;;;;;;;;;;;;;;5085112;28;19975;-55
2023/01/18 15:30:03;;;;;;;;;;;;;;;;;;5080810;28;20003;-55
2023/01/18 15:32:29;;;;;;;;;;;;;;;;;;5079307;28;20367;-56
2023/01/18 15:34:55;;;;;;;;;;;;;;;;;;5079401;28;19981;-56
2023/01/18 15:37:21;;;;;;;;;;;;;;;;;;5077164;28;19920;-56
2023/01/18 15:39:46;;;;;;;;;;;;;;;;;;5077871;28;19944;-55
2023/01/18 15:42:12;;;;;;;;;;;;;;;;;;5080002;28;19920;-56
2023/01/18 15:44:38;;;;;;;;;;;;;;;;;;5085318;28;19942;-56
2023/01/18 15:47:04;;;;;;;;;;;;;;;;;;5076053;28;19927;-56
2023/01/18 15:49:30;;;;;;;;;;;;;;;;;;5070747;28;19920;-55
2023/01/18 15:51:56;;;;;;;;;;;;;;;;;;5077601;28;20306;-55
2023/01/18 15:54:23;;;;;;;;;;;;;;;;;;5084664;28;20405;-56
2023/01/18 15:56:49;;;;;;;;;;;;;;;;;;5085626;28;20069;-56
2023/01/18 15:59:15;;;;;;;;;;;;;;;;;;5078799;28;19995;-55
2023/01/18 16:01:43;;;;;;;;;;;;;;;;;;5083810;28;20326;-57
2023/01/18 16:04:10;;;;;;;;;;;;;;;;;;5084232;28;20311;-55
2023/01/18 16:06:37;;;;;;;;;;;;;;;;;;5086553;28;20333;-55
2023/01/18 16:09:07;;;;;;;;;;;;;;;;;;5084246;28;19931;-55
2023/01/18 16:11:33;;;;;;;;;;;;;;;;;;5074894;28;19930;-55
2023/01/18 16:13:59;;;;;;;;;;;;;;;;;;5071568;28;19924;-55
2023/01/18 16:16:25;;;;;;;;;;;;;;;;;;5074748;28;19927;-55
2023/01/18 16:18:51;;;;;;;;;;;;;;;;;;5083347;28;20338;-56
2023/01/18 16:21:16;;;;;;;;;;;;;;;;;;5084212;28;19970;-55
2023/01/18 16:23:42;;;;;;;;;;;;;;;;;;5085918;28;19920;-55
2023/01/18 16:26:08;;;;;;;;;;;;;;;;;;5080169;28;19932;-57
2023/01/18 16:28:35;;;;;;;;;;;;;;;;;;5076367;28;20375;-55
2023/01/18 16:31:02;;;;;;;;;;;;;;;;;;5073028;28;19974;-56
2023/01/18 16:33:27;;;;;;;;;;;;;;;;;;5066003;28;20043;-55
2023/01/18 16:35:53;;;;;;;;;;;;;;;;;;5065710;28;20007;-56
2023/01/18 16:38:19;;;;;;;;;;;;;;;;;;5065794;28;20305;-56
2023/01/18 16:40:45;;;;;;;;;;;;;;;;;;5063824;28;19920;-59
2023/01/18 16:43:11;;;;;;;;;;;;;;;;;;5065600;28;20012;-56
2023/01/18 16:45:37;;;;;;;;;;;;;;;;;;5064324;28;19920;-55
2023/01/18 16:48:03;;;;;;;;;;;;;;;;;;5065448;28;19924;-56
2023/01/18 16:50:29;;;;;;;;;;;;;;;;;;5065425;28;19920;-56
2023/01/18 16:52:55;;;;;;;;;;;;;;;;;;5065684;28;19920;-56